Terminal Aerodrome Forecast
Issued by NWS

Home | Current Version | Previous Version | Text Only | Print | Product List | Glossary On
Versions: 1 2 3 4 5 6 7 8 9 10 11 12 13 14 15 16 17 18 19
193
FTUS45 KABQ 170543 RRA
TAFROW
TAF
KROW 170543Z 1706/1806 01010KT P6SM SCT010 BKN050
     FM170700 01006KT P6SM BKN040
     FM171800 VRB04KT P6SM VCSH OVC030=

USA.gov is the U.S. government's official web portal to all federal, state and local government web resources and services.